07:32
Airports
History
Links
Donate
Help keep this website running!
PayPal
Bitcoin
This page is community maintained. The information is intended for PC simulator navigation or reference.
Always use approved charts for navigation.
VEGT
GUWAHATI INTL
GUWAHATI INTL (VEGT)
Guwahati, Assam, India (781015)
(C)
Lat/Lng:26° 6' 21.93" N / 91° 35' 9.38" E
26.106091 / 91.58594
Elevation:162'ft / 49mMSL
ID / ICAO:VEGT
Runways:1
Longest:02-20
Asphalt 2,752m / 9,029ft
Controlled:Yes
METAR07:00 GMT 2017-09-23
Altimeter: 29.74
Visibility: 3.1 statute miles
Wind: 6 knots (from 320°)
Temp: 32°c / 90°f
Humidity: 79.5%

METAR: VEGT 230700Z 32006KT 5000 BR SCT016 BKN100 32/28 Q1007 NOSIG

(Powered by phpweather)
Airport Radio Frequencies
ATIS: 126.6
Ground: 121.9
Tower: 118.75
Approach: 123.3
Nearby VORs <50NM
Nearby NDBs
Runway 02 / 20
Dimensions:2752 x 45.7m 9029' x 150'ft
Surface:Asphalt
Edge Lights:High intensity
Runway 02 [A]Runway 20 [B]
Heading:022°TH 202°TH
Lat:
Lng:
26° 5' 40.83"N
91° 34' 50.28"E
26° 7' 3.02"N
91° 35' 28.49"E
ALS:SALSSALS
User Notes and Comments
26° 6' 21.93" N / 91° 35' 9.38" E
Distance To
Airport ID:
Nearby Airports
(C) BARAPANI 37.0 NM
VEBI SE 138°
(U) YONGPHULLA 79.6 NM
VQ10 N 356°
(C) OSMANY INTL 80.9 NM
VGSY SSE 167°
(U) TEZPUR 85.1 NM
VETZ ENE 60°
(C) SILCHAR 119.7 NM
VEKU SE 133°
(C) KAILASHAHAR 127.0 NM
VEKR SSE 168°
(C) COOCH BEHAR 132.2 NM
VECO W 276°
VFR Chart
Flight Planning at SkyVector.com